sensor_id;sensor_type;location;lat;lon;timestamp;P1;durP1;ratioP1;P2;durP2;ratioP2
76597;SDS011;65486;53.144;18.134;2024-02-14T00:00:12;16.50;;;6.90;;
76597;SDS011;65486;53.144;18.134;2024-02-14T00:03:02;12.70;;;5.60;;
76597;SDS011;65486;53.144;18.134;2024-02-14T00:05:35;12.40;;;5.20;;
76597;SDS011;65486;53.144;18.134;2024-02-14T00:08:02;10.90;;;4.80;;
76597;SDS011;65486;53.144;18.134;2024-02-14T00:10:30;12.20;;;5.50;;
76597;SDS011;65486;53.144;18.134;2024-02-14T00:13:00;17.50;;;6.40;;
76597;SDS011;65486;53.144;18.134;2024-02-14T00:15:36;17.10;;;7.40;;
76597;SDS011;65486;53.144;18.134;2024-02-14T00:18:07;15.40;;;7.60;;
76597;SDS011;65486;53.144;18.134;2024-02-14T00:20:36;12.90;;;5.10;;
76597;SDS011;65486;53.144;18.134;2024-02-14T00:23:10;12.80;;;5.70;;
76597;SDS011;65486;53.144;18.134;2024-02-14T00:25:46;14.20;;;5.90;;
76597;SDS011;65486;53.144;18.134;2024-02-14T00:28:15;12.40;;;5.60;;
76597;SDS011;65486;53.144;18.134;2024-02-14T00:30:46;12.20;;;5.80;;
76597;SDS011;65486;53.144;18.134;2024-02-14T00:33:13;11.20;;;4.90;;
76597;SDS011;65486;53.144;18.134;2024-02-14T00:35:43;10.20;;;4.30;;
76597;SDS011;65486;53.144;18.134;2024-02-14T00:38:11;12.40;;;5.70;;
76597;SDS011;65486;53.144;18.134;2024-02-14T00:40:38;13.70;;;6.60;;
76597;SDS011;65486;53.144;18.134;2024-02-14T00:43:05;14.20;;;6.30;;
76597;SDS011;65486;53.144;18.134;2024-02-14T00:45:34;13.80;;;6.10;;
76597;SDS011;65486;53.144;18.134;2024-02-14T00:48:02;17.70;;;8.10;;
76597;SDS011;65486;53.144;18.134;2024-02-14T00:50:31;14.90;;;6.60;;
76597;SDS011;65486;53.144;18.134;2024-02-14T00:53:03;13.70;;;6.40;;
76597;SDS011;65486;53.144;18.134;2024-02-14T00:55:32;13.60;;;6.00;;
76597;SDS011;65486;53.144;18.134;2024-02-14T00:57:59;14.00;;;6.00;;
76597;SDS011;65486;53.144;18.134;2024-02-14T01:00:28;15.00;;;6.30;;
76597;SDS011;65486;53.144;18.134;2024-02-14T01:02:56;13.30;;;6.40;;
76597;SDS011;65486;53.144;18.134;2024-02-14T01:05:25;14.90;;;6.30;;
76597;SDS011;65486;53.144;18.134;2024-02-14T01:07:56;14.60;;;6.50;;
76597;SDS011;65486;53.144;18.134;2024-02-14T01:10:25;11.70;;;5.40;;
76597;SDS011;65486;53.144;18.134;2024-02-14T01:12:54;22.40;;;9.00;;
76597;SDS011;65486;53.144;18.134;2024-02-14T01:15:22;12.80;;;6.00;;
76597;SDS011;65486;53.144;18.134;2024-02-14T01:17:48;11.90;;;6.10;;
76597;SDS011;65486;53.144;18.134;2024-02-14T01:20:20;15.10;;;6.10;;
76597;SDS011;65486;53.144;18.134;2024-02-14T01:22:51;19.00;;;8.20;;
76597;SDS011;65486;53.144;18.134;2024-02-14T01:25:26;20.90;;;9.70;;
76597;SDS011;65486;53.144;18.134;2024-02-14T01:27:56;17.30;;;8.00;;
76597;SDS011;65486;53.144;18.134;2024-02-14T01:30:24;14.40;;;6.20;;
76597;SDS011;65486;53.144;18.134;2024-02-14T01:33:14;16.40;;;6.80;;
76597;SDS011;65486;53.144;18.134;2024-02-14T01:35:59;18.70;;;7.80;;
76597;SDS011;65486;53.144;18.134;2024-02-14T01:38:47;9.90;;;4.80;;
76597;SDS011;65486;53.144;18.134;2024-02-14T01:41:14;16.50;;;7.50;;
76597;SDS011;65486;53.144;18.134;2024-02-14T01:43:43;13.10;;;6.50;;
76597;SDS011;65486;53.144;18.134;2024-02-14T01:46:12;14.00;;;6.20;;
76597;SDS011;65486;53.144;18.134;2024-02-14T01:48:40;12.20;;;5.90;;
76597;SDS011;65486;53.144;18.134;2024-02-14T01:51:11;13.90;;;6.20;;
76597;SDS011;65486;53.144;18.134;2024-02-14T01:53:40;14.40;;;6.30;;
76597;SDS011;65486;53.144;18.134;2024-02-14T01:56:13;18.50;;;7.30;;
76597;SDS011;65486;53.144;18.134;2024-02-14T01:58:49;14.90;;;6.10;;
76597;SDS011;65486;53.144;18.134;2024-02-14T02:01:18;15.70;;;6.80;;
76597;SDS011;65486;53.144;18.134;2024-02-14T02:03:49;16.00;;;6.60;;
76597;SDS011;65486;53.144;18.134;2024-02-14T02:06:20;16.40;;;7.20;;
76597;SDS011;65486;53.144;18.134;2024-02-14T02:08:54;17.20;;;7.60;;
76597;SDS011;65486;53.144;18.134;2024-02-14T02:11:25;18.30;;;7.30;;
76597;SDS011;65486;53.144;18.134;2024-02-14T02:13:54;16.20;;;6.90;;
76597;SDS011;65486;53.144;18.134;2024-02-14T02:16:23;16.60;;;7.40;;
76597;SDS011;65486;53.144;18.134;2024-02-14T02:18:52;19.30;;;9.00;;
76597;SDS011;65486;53.144;18.134;2024-02-14T02:21:36;18.10;;;8.50;;
76597;SDS011;65486;53.144;18.134;2024-02-14T02:24:05;15.80;;;8.90;;
76597;SDS011;65486;53.144;18.134;2024-02-14T02:26:35;22.60;;;9.60;;
76597;SDS011;65486;53.144;18.134;2024-02-14T02:29:03;19.30;;;8.80;;
76597;SDS011;65486;53.144;18.134;2024-02-14T02:31:36;16.20;;;7.80;;
76597;SDS011;65486;53.144;18.134;2024-02-14T02:34:08;27.10;;;10.90;;
76597;SDS011;65486;53.144;18.134;2024-02-14T02:36:58;12.60;;;6.20;;
76597;SDS011;65486;53.144;18.134;2024-02-14T02:39:25;13.10;;;6.50;;
76597;SDS011;65486;53.144;18.134;2024-02-14T02:41:52;15.90;;;6.90;;
76597;SDS011;65486;53.144;18.134;2024-02-14T02:44:34;21.90;;;8.90;;
76597;SDS011;65486;53.144;18.134;2024-02-14T02:47:09;14.90;;;6.90;;
76597;SDS011;65486;53.144;18.134;2024-02-14T02:49:39;19.50;;;9.40;;
76597;SDS011;65486;53.144;18.134;2024-02-14T02:52:07;21.40;;;9.30;;
76597;SDS011;65486;53.144;18.134;2024-02-14T02:54:36;16.10;;;7.90;;
76597;SDS011;65486;53.144;18.134;2024-02-14T02:57:07;26.70;;;11.20;;
76597;SDS011;65486;53.144;18.134;2024-02-14T02:59:36;26.00;;;10.80;;
76597;SDS011;65486;53.144;18.134;2024-02-14T03:02:04;15.60;;;7.30;;
76597;SDS011;65486;53.144;18.134;2024-02-14T03:04:35;20.20;;;9.40;;
76597;SDS011;65486;53.144;18.134;2024-02-14T03:07:05;15.20;;;7.30;;
76597;SDS011;65486;53.144;18.134;2024-02-14T03:09:35;17.60;;;7.20;;
76597;SDS011;65486;53.144;18.134;2024-02-14T03:12:03;14.40;;;7.20;;
76597;SDS011;65486;53.144;18.134;2024-02-14T03:14:36;14.90;;;7.00;;
76597;SDS011;65486;53.144;18.134;2024-02-14T03:17:03;16.70;;;7.50;;
76597;SDS011;65486;53.144;18.134;2024-02-14T03:19:31;13.00;;;6.90;;
76597;SDS011;65486;53.144;18.134;2024-02-14T03:22:11;19.90;;;9.10;;
76597;SDS011;65486;53.144;18.134;2024-02-14T03:25:22;16.90;;;7.90;;
76597;SDS011;65486;53.144;18.134;2024-02-14T03:27:50;15.80;;;7.40;;
76597;SDS011;65486;53.144;18.134;2024-02-14T03:30:20;18.60;;;8.40;;
76597;SDS011;65486;53.144;18.134;2024-02-14T03:32:51;16.20;;;6.30;;
76597;SDS011;65486;53.144;18.134;2024-02-14T03:35:35;14.00;;;6.10;;
76597;SDS011;65486;53.144;18.134;2024-02-14T03:38:35;13.40;;;6.00;;
76597;SDS011;65486;53.144;18.134;2024-02-14T03:41:07;16.90;;;7.80;;
76597;SDS011;65486;53.144;18.134;2024-02-14T03:43:34;13.50;;;7.00;;
76597;SDS011;65486;53.144;18.134;2024-02-14T03:46:06;13.70;;;7.20;;
76597;SDS011;65486;53.144;18.134;2024-02-14T03:48:33;13.60;;;6.30;;
76597;SDS011;65486;53.144;18.134;2024-02-14T03:51:32;15.90;;;7.50;;
76597;SDS011;65486;53.144;18.134;2024-02-14T03:57:06;14.90;;;7.10;;
76597;SDS011;65486;53.144;18.134;2024-02-14T03:59:35;19.10;;;7.50;;
76597;SDS011;65486;53.144;18.134;2024-02-14T04:02:06;16.40;;;7.40;;
76597;SDS011;65486;53.144;18.134;2024-02-14T04:04:36;22.70;;;10.40;;
76597;SDS011;65486;53.144;18.134;2024-02-14T04:07:12;15.30;;;7.10;;
76597;SDS011;65486;53.144;18.134;2024-02-14T04:09:43;16.50;;;7.50;;
76597;SDS011;65486;53.144;18.134;2024-02-14T04:12:10;18.40;;;8.70;;
76597;SDS011;65486;53.144;18.134;2024-02-14T04:14:40;20.40;;;8.70;;
76597;SDS011;65486;53.144;18.134;2024-02-14T04:17:12;15.40;;;7.10;;
76597;SDS011;65486;53.144;18.134;2024-02-14T04:19:45;16.30;;;7.10;;
76597;SDS011;65486;53.144;18.134;2024-02-14T04:22:13;14.40;;;7.00;;
76597;SDS011;65486;53.144;18.134;2024-02-14T04:27:51;15.80;;;7.60;;
76597;SDS011;65486;53.144;18.134;2024-02-14T04:30:21;12.90;;;5.30;;
76597;SDS011;65486;53.144;18.134;2024-02-14T04:32:51;15.10;;;7.10;;
76597;SDS011;65486;53.144;18.134;2024-02-14T04:35:20;18.50;;;9.00;;
76597;SDS011;65486;53.144;18.134;2024-02-14T04:37:49;16.10;;;7.70;;
76597;SDS011;65486;53.144;18.134;2024-02-14T04:40:21;17.80;;;8.70;;
76597;SDS011;65486;53.144;18.134;2024-02-14T04:42:49;14.50;;;6.90;;
76597;SDS011;65486;53.144;18.134;2024-02-14T04:45:18;15.60;;;8.10;;
76597;SDS011;65486;53.144;18.134;2024-02-14T04:47:45;21.60;;;9.00;;
76597;SDS011;65486;53.144;18.134;2024-02-14T04:50:13;16.60;;;7.40;;
76597;SDS011;65486;53.144;18.134;2024-02-14T04:56:15;11.60;;;5.70;;
76597;SDS011;65486;53.144;18.134;2024-02-14T04:58:50;13.70;;;6.60;;
76597;SDS011;65486;53.144;18.134;2024-02-14T05:02:16;18.40;;;8.40;;
76597;SDS011;65486;53.144;18.134;2024-02-14T05:04:44;14.20;;;7.10;;
76597;SDS011;65486;53.144;18.134;2024-02-14T05:07:12;17.80;;;8.90;;
76597;SDS011;65486;53.144;18.134;2024-02-14T05:09:56;24.40;;;11.00;;
76597;SDS011;65486;53.144;18.134;2024-02-14T05:13:06;16.70;;;8.00;;
76597;SDS011;65486;53.144;18.134;2024-02-14T05:15:35;14.70;;;6.60;;
76597;SDS011;65486;53.144;18.134;2024-02-14T05:18:03;22.00;;;10.10;;
76597;SDS011;65486;53.144;18.134;2024-02-14T05:20:30;24.00;;;10.50;;
76597;SDS011;65486;53.144;18.134;2024-02-14T05:22:59;20.20;;;9.20;;
76597;SDS011;65486;53.144;18.134;2024-02-14T05:25:33;24.20;;;11.00;;
76597;SDS011;65486;53.144;18.134;2024-02-14T05:28:02;21.40;;;9.40;;
76597;SDS011;65486;53.144;18.134;2024-02-14T05:30:32;21.90;;;10.30;;
76597;SDS011;65486;53.144;18.134;2024-02-14T05:33:03;17.50;;;8.80;;
76597;SDS011;65486;53.144;18.134;2024-02-14T05:35:31;21.00;;;9.50;;
76597;SDS011;65486;53.144;18.134;2024-02-14T05:38:22;21.60;;;8.70;;
76597;SDS011;65486;53.144;18.134;2024-02-14T05:40:50;25.20;;;10.40;;
76597;SDS011;65486;53.144;18.134;2024-02-14T05:43:17;24.70;;;11.40;;
76597;SDS011;65486;53.144;18.134;2024-02-14T05:45:45;20.50;;;8.40;;
76597;SDS011;65486;53.144;18.134;2024-02-14T05:48:44;17.90;;;8.20;;
76597;SDS011;65486;53.144;18.134;2024-02-14T05:51:11;18.90;;;8.60;;
76597;SDS011;65486;53.144;18.134;2024-02-14T05:53:38;14.80;;;7.40;;
76597;SDS011;65486;53.144;18.134;2024-02-14T05:56:06;17.60;;;7.70;;
76597;SDS011;65486;53.144;18.134;2024-02-14T05:58:34;15.70;;;6.80;;
76597;SDS011;65486;53.144;18.134;2024-02-14T06:01:04;15.70;;;7.30;;
76597;SDS011;65486;53.144;18.134;2024-02-14T06:03:36;14.80;;;7.20;;
76597;SDS011;65486;53.144;18.134;2024-02-14T06:06:29;16.10;;;7.80;;
76597;SDS011;65486;53.144;18.134;2024-02-14T06:08:56;18.40;;;7.80;;
76597;SDS011;65486;53.144;18.134;2024-02-14T06:11:29;16.40;;;7.80;;
76597;SDS011;65486;53.144;18.134;2024-02-14T06:13:56;23.00;;;10.50;;
76597;SDS011;65486;53.144;18.134;2024-02-14T06:16:24;21.50;;;9.10;;
76597;SDS011;65486;53.144;18.134;2024-02-14T06:18:52;20.00;;;9.00;;
76597;SDS011;65486;53.144;18.134;2024-02-14T06:21:20;19.10;;;7.90;;
76597;SDS011;65486;53.144;18.134;2024-02-14T06:23:47;20.40;;;7.40;;
76597;SDS011;65486;53.144;18.134;2024-02-14T06:26:16;16.80;;;7.80;;
76597;SDS011;65486;53.144;18.134;2024-02-14T06:28:45;17.50;;;8.50;;
76597;SDS011;65486;53.144;18.134;2024-02-14T06:31:13;26.50;;;11.30;;
76597;SDS011;65486;53.144;18.134;2024-02-14T06:33:42;18.70;;;8.20;;
76597;SDS011;65486;53.144;18.134;2024-02-14T06:36:11;23.40;;;9.80;;
76597;SDS011;65486;53.144;18.134;2024-02-14T06:38:41;23.00;;;8.90;;
76597;SDS011;65486;53.144;18.134;2024-02-14T06:41:08;16.50;;;7.60;;
76597;SDS011;65486;53.144;18.134;2024-02-14T06:43:37;19.10;;;8.40;;
76597;SDS011;65486;53.144;18.134;2024-02-14T06:46:08;19.20;;;8.40;;
76597;SDS011;65486;53.144;18.134;2024-02-14T06:48:37;20.80;;;8.60;;
76597;SDS011;65486;53.144;18.134;2024-02-14T06:51:06;20.80;;;9.10;;
76597;SDS011;65486;53.144;18.134;2024-02-14T06:53:37;21.40;;;9.30;;
76597;SDS011;65486;53.144;18.134;2024-02-14T06:56:05;19.40;;;9.10;;
76597;SDS011;65486;53.144;18.134;2024-02-14T06:58:35;27.70;;;12.30;;
76597;SDS011;65486;53.144;18.134;2024-02-14T07:01:04;20.90;;;9.20;;
76597;SDS011;65486;53.144;18.134;2024-02-14T07:03:34;24.80;;;11.20;;
76597;SDS011;65486;53.144;18.134;2024-02-14T07:06:01;23.90;;;10.70;;
76597;SDS011;65486;53.144;18.134;2024-02-14T07:08:32;21.00;;;9.40;;
76597;SDS011;65486;53.144;18.134;2024-02-14T07:10:59;40.20;;;17.50;;
76597;SDS011;65486;53.144;18.134;2024-02-14T07:13:34;27.30;;;12.40;;
76597;SDS011;65486;53.144;18.134;2024-02-14T07:16:01;31.20;;;14.10;;
76597;SDS011;65486;53.144;18.134;2024-02-14T07:18:28;23.70;;;10.90;;
76597;SDS011;65486;53.144;18.134;2024-02-14T07:21:02;27.30;;;12.00;;
76597;SDS011;65486;53.144;18.134;2024-02-14T07:26:47;30.10;;;13.80;;
76597;SDS011;65486;53.144;18.134;2024-02-14T07:29:23;37.40;;;15.50;;
76597;SDS011;65486;53.144;18.134;2024-02-14T07:32:15;28.00;;;13.60;;
76597;SDS011;65486;53.144;18.134;2024-02-14T07:34:45;36.90;;;18.70;;
76597;SDS011;65486;53.144;18.134;2024-02-14T07:37:14;31.80;;;17.10;;
76597;SDS011;65486;53.144;18.134;2024-02-14T07:39:46;33.30;;;16.80;;
76597;SDS011;65486;53.144;18.134;2024-02-14T07:42:14;34.80;;;16.40;;
76597;SDS011;65486;53.144;18.134;2024-02-14T07:44:41;36.30;;;17.00;;
76597;SDS011;65486;53.144;18.134;2024-02-14T07:47:13;34.00;;;17.20;;
76597;SDS011;65486;53.144;18.134;2024-02-14T07:49:41;32.90;;;16.50;;
76597;SDS011;65486;53.144;18.134;2024-02-14T07:52:10;30.80;;;15.70;;
76597;SDS011;65486;53.144;18.134;2024-02-14T07:54:46;29.50;;;15.60;;
76597;SDS011;65486;53.144;18.134;2024-02-14T07:57:13;29.40;;;17.10;;
76597;SDS011;65486;53.144;18.134;2024-02-14T07:59:42;28.40;;;16.50;;
76597;SDS011;65486;53.144;18.134;2024-02-14T08:02:09;27.40;;;15.50;;
76597;SDS011;65486;53.144;18.134;2024-02-14T08:04:36;30.70;;;17.00;;
76597;SDS011;65486;53.144;18.134;2024-02-14T08:07:03;30.70;;;16.90;;
76597;SDS011;65486;53.144;18.134;2024-02-14T08:09:30;34.30;;;17.60;;
76597;SDS011;65486;53.144;18.134;2024-02-14T08:12:09;30.20;;;16.60;;
76597;SDS011;65486;53.144;18.134;2024-02-14T08:14:45;30.20;;;17.70;;
76597;SDS011;65486;53.144;18.134;2024-02-14T08:17:19;28.80;;;17.10;;
76597;SDS011;65486;53.144;18.134;2024-02-14T08:19:51;31.00;;;17.60;;
76597;SDS011;65486;53.144;18.134;2024-02-14T08:22:22;27.90;;;16.90;;
76597;SDS011;65486;53.144;18.134;2024-02-14T08:24:51;33.10;;;17.50;;
76597;SDS011;65486;53.144;18.134;2024-02-14T08:27:20;28.80;;;17.20;;
76597;SDS011;65486;53.144;18.134;2024-02-14T08:29:53;26.00;;;15.10;;
76597;SDS011;65486;53.144;18.134;2024-02-14T08:32:19;26.80;;;15.20;;
76597;SDS011;65486;53.144;18.134;2024-02-14T08:34:50;28.50;;;17.40;;
76597;SDS011;65486;53.144;18.134;2024-02-14T08:37:17;30.70;;;17.30;;
76597;SDS011;65486;53.144;18.134;2024-02-14T08:39:44;32.00;;;17.60;;
76597;SDS011;65486;53.144;18.134;2024-02-14T08:42:13;28.20;;;16.20;;
76597;SDS011;65486;53.144;18.134;2024-02-14T08:44:40;29.90;;;16.80;;
76597;SDS011;65486;53.144;18.134;2024-02-14T08:47:10;30.00;;;16.70;;
76597;SDS011;65486;53.144;18.134;2024-02-14T08:49:40;31.60;;;18.10;;
76597;SDS011;65486;53.144;18.134;2024-02-14T08:52:11;32.20;;;16.90;;
76597;SDS011;65486;53.144;18.134;2024-02-14T08:54:41;31.80;;;15.90;;
76597;SDS011;65486;53.144;18.134;2024-02-14T08:57:22;30.10;;;17.40;;
76597;SDS011;65486;53.144;18.134;2024-02-14T09:00:16;26.30;;;14.70;;
76597;SDS011;65486;53.144;18.134;2024-02-14T09:03:00;31.90;;;17.70;;
76597;SDS011;65486;53.144;18.134;2024-02-14T09:05:29;23.90;;;13.80;;
76597;SDS011;65486;53.144;18.134;2024-02-14T09:08:09;28.70;;;15.30;;
76597;SDS011;65486;53.144;18.134;2024-02-14T09:10:41;25.90;;;13.70;;
76597;SDS011;65486;53.144;18.134;2024-02-14T09:13:07;26.00;;;16.00;;
76597;SDS011;65486;53.144;18.134;2024-02-14T09:15:36;26.00;;;15.00;;
76597;SDS011;65486;53.144;18.134;2024-02-14T09:18:03;31.60;;;16.40;;
76597;SDS011;65486;53.144;18.134;2024-02-14T09:20:31;27.20;;;14.50;;
76597;SDS011;65486;53.144;18.134;2024-02-14T09:23:04;24.70;;;13.00;;
76597;SDS011;65486;53.144;18.134;2024-02-14T09:25:34;24.30;;;13.70;;
76597;SDS011;65486;53.144;18.134;2024-02-14T09:28:03;32.30;;;16.50;;
76597;SDS011;65486;53.144;18.134;2024-02-14T09:30:44;25.60;;;14.00;;
76597;SDS011;65486;53.144;18.134;2024-02-14T09:33:13;27.20;;;15.40;;
76597;SDS011;65486;53.144;18.134;2024-02-14T09:35:47;24.90;;;15.10;;
76597;SDS011;65486;53.144;18.134;2024-02-14T09:38:16;26.10;;;14.60;;
76597;SDS011;65486;53.144;18.134;2024-02-14T09:40:42;24.90;;;14.90;;
76597;SDS011;65486;53.144;18.134;2024-02-14T09:46:14;18.80;;;11.70;;
76597;SDS011;65486;53.144;18.134;2024-02-14T09:48:43;23.00;;;13.70;;
76597;SDS011;65486;53.144;18.134;2024-02-14T09:51:12;26.90;;;13.90;;
76597;SDS011;65486;53.144;18.134;2024-02-14T09:56:52;21.50;;;12.40;;
76597;SDS011;65486;53.144;18.134;2024-02-14T10:02:50;21.90;;;11.70;;
76597;SDS011;65486;53.144;18.134;2024-02-14T10:05:20;18.40;;;10.70;;
76597;SDS011;65486;53.144;18.134;2024-02-14T10:07:48;23.20;;;12.00;;
76597;SDS011;65486;53.144;18.134;2024-02-14T10:10:16;17.40;;;10.50;;
76597;SDS011;65486;53.144;18.134;2024-02-14T10:12:45;20.10;;;11.00;;
76597;SDS011;65486;53.144;18.134;2024-02-14T10:15:12;21.00;;;11.70;;
76597;SDS011;65486;53.144;18.134;2024-02-14T10:17:39;24.10;;;12.70;;
76597;SDS011;65486;53.144;18.134;2024-02-14T10:20:09;21.10;;;13.00;;
76597;SDS011;65486;53.144;18.134;2024-02-14T10:22:43;18.70;;;11.20;;
76597;SDS011;65486;53.144;18.134;2024-02-14T10:25:15;17.90;;;11.00;;
76597;SDS011;65486;53.144;18.134;2024-02-14T10:27:47;19.30;;;9.20;;
76597;SDS011;65486;53.144;18.134;2024-02-14T10:30:15;20.30;;;10.30;;
76597;SDS011;65486;53.144;18.134;2024-02-14T10:32:46;22.00;;;11.40;;
76597;SDS011;65486;53.144;18.134;2024-02-14T10:35:19;16.30;;;8.80;;
76597;SDS011;65486;53.144;18.134;2024-02-14T10:37:51;17.40;;;7.90;;
76597;SDS011;65486;53.144;18.134;2024-02-14T10:40:23;17.80;;;9.30;;
76597;SDS011;65486;53.144;18.134;2024-02-14T10:42:54;16.50;;;8.80;;
76597;SDS011;65486;53.144;18.134;2024-02-14T10:45:24;16.50;;;8.20;;
76597;SDS011;65486;53.144;18.134;2024-02-14T10:47:53;14.30;;;7.70;;
76597;SDS011;65486;53.144;18.134;2024-02-14T10:50:27;17.30;;;8.60;;
76597;SDS011;65486;53.144;18.134;2024-02-14T10:53:04;14.50;;;8.20;;
76597;SDS011;65486;53.144;18.134;2024-02-14T10:55:33;14.10;;;8.50;;
76597;SDS011;65486;53.144;18.134;2024-02-14T10:58:18;18.10;;;8.10;;
76597;SDS011;65486;53.144;18.134;2024-02-14T11:00:48;14.30;;;7.10;;
76597;SDS011;65486;53.144;18.134;2024-02-14T11:03:19;12.50;;;6.30;;
76597;SDS011;65486;53.144;18.134;2024-02-14T11:05:53;17.30;;;8.30;;
76597;SDS011;65486;53.144;18.134;2024-02-14T11:08:29;12.10;;;6.00;;
76597;SDS011;65486;53.144;18.134;2024-02-14T11:11:05;18.30;;;8.30;;
76597;SDS011;65486;53.144;18.134;2024-02-14T11:13:38;14.70;;;7.60;;
76597;SDS011;65486;53.144;18.134;2024-02-14T11:16:09;14.70;;;8.00;;
76597;SDS011;65486;53.144;18.134;2024-02-14T11:18:36;10.90;;;6.40;;
76597;SDS011;65486;53.144;18.134;2024-02-14T11:21:16;14.10;;;7.60;;
76597;SDS011;65486;53.144;18.134;2024-02-14T11:26:37;16.10;;;8.30;;
76597;SDS011;65486;53.144;18.134;2024-02-14T11:29:28;17.30;;;8.60;;
76597;SDS011;65486;53.144;18.134;2024-02-14T11:32:06;16.60;;;7.80;;
76597;SDS011;65486;53.144;18.134;2024-02-14T11:34:36;16.60;;;8.50;;
76597;SDS011;65486;53.144;18.134;2024-02-14T11:37:07;18.70;;;9.70;;
76597;SDS011;65486;53.144;18.134;2024-02-14T11:39:51;13.20;;;6.90;;
76597;SDS011;65486;53.144;18.134;2024-02-14T11:42:21;17.60;;;7.50;;
76597;SDS011;65486;53.144;18.134;2024-02-14T11:44:50;13.30;;;7.30;;
76597;SDS011;65486;53.144;18.134;2024-02-14T11:47:17;15.90;;;7.20;;
76597;SDS011;65486;53.144;18.134;2024-02-14T11:49:44;14.00;;;7.50;;
76597;SDS011;65486;53.144;18.134;2024-02-14T11:52:17;15.40;;;7.20;;
76597;SDS011;65486;53.144;18.134;2024-02-14T11:54:48;17.80;;;7.80;;
76597;SDS011;65486;53.144;18.134;2024-02-14T11:57:18;15.10;;;7.80;;
76597;SDS011;65486;53.144;18.134;2024-02-14T11:59:52;13.90;;;6.80;;
76597;SDS011;65486;53.144;18.134;2024-02-14T12:02:24;13.50;;;7.10;;
76597;SDS011;65486;53.144;18.134;2024-02-14T12:04:53;13.10;;;5.10;;
76597;SDS011;65486;53.144;18.134;2024-02-14T12:07:23;17.60;;;7.90;;
76597;SDS011;65486;53.144;18.134;2024-02-14T12:09:54;15.20;;;6.80;;
76597;SDS011;65486;53.144;18.134;2024-02-14T12:12:27;13.40;;;5.60;;
76597;SDS011;65486;53.144;18.134;2024-02-14T12:14:56;13.60;;;5.90;;
76597;SDS011;65486;53.144;18.134;2024-02-14T12:17:23;12.80;;;7.30;;
76597;SDS011;65486;53.144;18.134;2024-02-14T12:19:51;12.80;;;6.60;;
76597;SDS011;65486;53.144;18.134;2024-02-14T12:22:20;16.90;;;6.60;;
76597;SDS011;65486;53.144;18.134;2024-02-14T12:24:48;13.20;;;5.70;;
76597;SDS011;65486;53.144;18.134;2024-02-14T12:27:19;12.20;;;5.80;;
76597;SDS011;65486;53.144;18.134;2024-02-14T12:29:51;13.00;;;5.80;;
76597;SDS011;65486;53.144;18.134;2024-02-14T12:32:19;14.50;;;6.20;;
76597;SDS011;65486;53.144;18.134;2024-02-14T12:34:47;14.60;;;6.50;;
76597;SDS011;65486;53.144;18.134;2024-02-14T12:37:19;15.20;;;7.40;;
76597;SDS011;65486;53.144;18.134;2024-02-14T12:39:48;12.00;;;5.60;;
76597;SDS011;65486;53.144;18.134;2024-02-14T12:42:17;13.30;;;6.70;;
76597;SDS011;65486;53.144;18.134;2024-02-14T12:44:54;13.10;;;6.70;;
76597;SDS011;65486;53.144;18.134;2024-02-14T12:47:22;8.70;;;4.20;;
76597;SDS011;65486;53.144;18.134;2024-02-14T12:49:57;12.10;;;5.60;;
76597;SDS011;65486;53.144;18.134;2024-02-14T12:52:29;13.30;;;6.60;;
76597;SDS011;65486;53.144;18.134;2024-02-14T12:55:00;13.20;;;6.50;;
76597;SDS011;65486;53.144;18.134;2024-02-14T12:57:35;11.90;;;5.80;;
76597;SDS011;65486;53.144;18.134;2024-02-14T13:00:17;10.10;;;4.80;;
76597;SDS011;65486;53.144;18.134;2024-02-14T13:02:44;10.20;;;5.20;;
76597;SDS011;65486;53.144;18.134;2024-02-14T13:05:11;12.40;;;6.80;;
76597;SDS011;65486;53.144;18.134;2024-02-14T13:07:39;11.10;;;5.20;;
76597;SDS011;65486;53.144;18.134;2024-02-14T13:10:10;12.50;;;6.00;;
76597;SDS011;65486;53.144;18.134;2024-02-14T13:12:38;10.80;;;5.60;;
76597;SDS011;65486;53.144;18.134;2024-02-14T13:15:07;10.00;;;5.50;;
76597;SDS011;65486;53.144;18.134;2024-02-14T13:17:42;11.60;;;5.40;;
76597;SDS011;65486;53.144;18.134;2024-02-14T13:20:18;10.50;;;4.50;;
76597;SDS011;65486;53.144;18.134;2024-02-14T13:22:46;12.70;;;6.60;;
76597;SDS011;65486;53.144;18.134;2024-02-14T13:25:16;9.50;;;5.10;;
76597;SDS011;65486;53.144;18.134;2024-02-14T13:27:44;13.10;;;6.50;;
76597;SDS011;65486;53.144;18.134;2024-02-14T13:30:12;17.00;;;6.90;;
76597;SDS011;65486;53.144;18.134;2024-02-14T13:32:44;11.50;;;5.40;;
76597;SDS011;65486;53.144;18.134;2024-02-14T13:35:21;13.90;;;6.60;;
76597;SDS011;65486;53.144;18.134;2024-02-14T13:38:05;11.30;;;4.90;;
76597;SDS011;65486;53.144;18.134;2024-02-14T13:40:33;10.60;;;5.40;;
76597;SDS011;65486;53.144;18.134;2024-02-14T13:43:00;11.60;;;6.00;;
76597;SDS011;65486;53.144;18.134;2024-02-14T13:45:41;15.70;;;6.10;;
76597;SDS011;65486;53.144;18.134;2024-02-14T13:48:14;12.60;;;5.80;;
76597;SDS011;65486;53.144;18.134;2024-02-14T13:50:45;14.60;;;6.70;;
76597;SDS011;65486;53.144;18.134;2024-02-14T13:53:14;15.50;;;7.30;;
76597;SDS011;65486;53.144;18.134;2024-02-14T13:59:07;11.20;;;5.60;;
76597;SDS011;65486;53.144;18.134;2024-02-14T14:01:34;14.30;;;6.50;;
76597;SDS011;65486;53.144;18.134;2024-02-14T14:04:01;15.60;;;7.30;;
76597;SDS011;65486;53.144;18.134;2024-02-14T14:06:31;9.00;;;4.50;;
76597;SDS011;65486;53.144;18.134;2024-02-14T14:09:08;12.00;;;5.90;;
76597;SDS011;65486;53.144;18.134;2024-02-14T14:11:39;15.50;;;5.70;;
76597;SDS011;65486;53.144;18.134;2024-02-14T14:14:10;12.30;;;5.80;;
76597;SDS011;65486;53.144;18.134;2024-02-14T14:16:48;9.70;;;4.80;;
76597;SDS011;65486;53.144;18.134;2024-02-14T14:19:24;12.30;;;6.00;;
76597;SDS011;65486;53.144;18.134;2024-02-14T14:22:17;14.20;;;6.30;;
76597;SDS011;65486;53.144;18.134;2024-02-14T14:25:01;12.00;;;4.70;;
76597;SDS011;65486;53.144;18.134;2024-02-14T14:27:29;12.80;;;5.60;;
76597;SDS011;65486;53.144;18.134;2024-02-14T14:29:56;10.60;;;5.90;;
76597;SDS011;65486;53.144;18.134;2024-02-14T14:32:23;15.10;;;6.70;;
76597;SDS011;65486;53.144;18.134;2024-02-14T14:34:50;17.20;;;7.00;;
76597;SDS011;65486;53.144;18.134;2024-02-14T14:37:18;15.50;;;7.10;;
76597;SDS011;65486;53.144;18.134;2024-02-14T14:42:38;17.90;;;7.80;;
76597;SDS011;65486;53.144;18.134;2024-02-14T14:45:15;19.20;;;7.70;;
76597;SDS011;65486;53.144;18.134;2024-02-14T14:47:45;15.50;;;7.30;;
76597;SDS011;65486;53.144;18.134;2024-02-14T14:50:22;15.40;;;7.30;;
76597;SDS011;65486;53.144;18.134;2024-02-14T14:52:56;13.40;;;6.30;;
76597;SDS011;65486;53.144;18.134;2024-02-14T14:55:25;20.10;;;9.60;;
76597;SDS011;65486;53.144;18.134;2024-02-14T14:57:54;17.90;;;8.50;;
76597;SDS011;65486;53.144;18.134;2024-02-14T15:00:25;21.60;;;9.20;;
76597;SDS011;65486;53.144;18.134;2024-02-14T15:02:53;19.00;;;8.30;;
76597;SDS011;65486;53.144;18.134;2024-02-14T15:05:22;22.80;;;9.90;;
76597;SDS011;65486;53.144;18.134;2024-02-14T15:07:52;21.70;;;10.30;;
76597;SDS011;65486;53.144;18.134;2024-02-14T15:10:23;17.80;;;7.90;;
76597;SDS011;65486;53.144;18.134;2024-02-14T15:12:52;21.30;;;10.00;;
76597;SDS011;65486;53.144;18.134;2024-02-14T15:15:22;23.40;;;10.10;;